createdAt,value
2023-03-08T00:01:01.516Z,61.34
2023-03-08T00:04:03.539Z,61.36
2023-03-08T00:07:05.462Z,61.48
2023-03-08T00:10:08.416Z,61.32
2023-03-08T00:13:10.430Z,61.61
2023-03-08T00:16:13.223Z,61.53
2023-03-08T00:19:15.161Z,61.43
2023-03-08T00:22:16.966Z,61.51
2023-03-08T00:25:18.837Z,61.40
2023-03-08T00:28:20.762Z,61.67
2023-03-08T00:31:22.747Z,61.62
2023-03-08T00:34:27.090Z,61.64
2023-03-08T00:37:28.898Z,61.61
2023-03-08T00:40:30.792Z,61.51
2023-03-08T00:43:33.209Z,61.43
2023-03-08T00:46:38.213Z,61.52
2023-03-08T00:49:41.762Z,61.43
2023-03-08T00:52:43.611Z,61.45
2023-03-08T00:55:56.704Z,61.48
2023-03-08T00:58:58.701Z,61.46
2023-03-08T01:02:01.089Z,61.56
2023-03-08T01:05:03.254Z,61.44
2023-03-08T01:08:05.164Z,61.32
2023-03-08T01:11:13.892Z,61.35
2023-03-08T01:14:15.784Z,61.35
2023-03-08T01:17:18.087Z,61.08
2023-03-08T01:20:20.128Z,61.30
2023-03-08T01:23:21.985Z,61.30
2023-03-08T01:26:26.154Z,61.13
2023-03-08T01:29:30.929Z,61.10
2023-03-08T01:32:33.788Z,61.27
2023-03-08T01:35:37.653Z,60.97
2023-03-08T01:38:39.661Z,60.89
2023-03-08T01:41:41.561Z,61.02
2023-03-08T01:44:51.466Z,61.02
2023-03-08T01:47:53.552Z,61.01
2023-03-08T01:51:02.884Z,60.78
2023-03-08T01:54:11.056Z,60.73
2023-03-08T01:57:26.678Z,61.03
2023-03-08T02:00:28.548Z,60.67
2023-03-08T02:03:30.438Z,60.87
2023-03-08T02:06:32.543Z,60.88
2023-03-08T02:09:34.401Z,60.71
2023-03-08T02:12:37.474Z,60.67
2023-03-08T02:15:39.440Z,60.64
2023-03-08T02:19:10.200Z,60.83
2023-03-08T02:22:14.656Z,60.78
2023-03-08T02:25:22.117Z,60.64
2023-03-08T02:28:26.018Z,60.72
2023-03-08T02:31:27.805Z,60.65
2023-03-08T02:34:29.695Z,60.78
2023-03-08T02:37:33.264Z,60.77
2023-03-08T02:40:36.603Z,60.56
2023-03-08T02:43:38.447Z,60.93
2023-03-08T02:46:41.242Z,60.87
2023-03-08T02:49:43.097Z,60.78
2023-03-08T02:52:44.999Z,60.83
2023-03-08T02:55:46.911Z,60.89
2023-03-08T02:58:48.744Z,60.76
2023-03-08T03:01:50.627Z,60.73
2023-03-08T03:04:52.486Z,60.79
2023-03-08T03:07:56.190Z,61.11
2023-03-08T03:10:59.627Z,61.12
2023-03-08T03:14:01.758Z,61.18
2023-03-08T03:17:07.909Z,61.12
2023-03-08T03:20:10.831Z,61.32
2023-03-08T03:23:12.701Z,61.12
2023-03-08T03:26:22.006Z,61.19
2023-03-08T03:29:25.623Z,61.29
2023-03-08T03:32:32.660Z,61.31
2023-03-08T03:35:38.259Z,61.39
2023-03-08T03:38:40.643Z,61.10
2023-03-08T03:41:42.804Z,61.41
2023-03-08T03:44:46.948Z,61.22
2023-03-08T03:47:51.779Z,61.50
2023-03-08T03:51:01.330Z,61.21
2023-03-08T03:54:03.573Z,61.26
2023-03-08T03:57:05.668Z,61.48
2023-03-08T04:00:11.217Z,61.36
2023-03-08T04:03:15.504Z,61.22
2023-03-08T04:06:18.762Z,61.16
2023-03-08T04:09:21.083Z,61.20
2023-03-08T04:12:28.617Z,61.10
2023-03-08T04:15:30.702Z,60.99
2023-03-08T04:18:33.595Z,60.87
2023-03-08T04:21:35.709Z,60.81
2023-03-08T04:24:37.736Z,60.74
2023-03-08T04:27:44.032Z,60.74
2023-03-08T04:30:46.681Z,60.76
2023-03-08T04:33:50.797Z,60.60
2023-03-08T04:36:52.906Z,60.58
2023-03-08T04:39:56.128Z,60.61
2023-03-08T04:42:58.363Z,60.43
2023-03-08T04:46:05.654Z,60.31
2023-03-08T04:49:08.006Z,60.28
2023-03-08T04:52:13.753Z,60.34
2023-03-08T04:55:15.933Z,60.21
2023-03-08T04:58:18.677Z,60.18
2023-03-08T05:01:22.831Z,60.06
2023-03-08T05:04:25.094Z,60.23
2023-03-08T05:07:27.201Z,59.96
2023-03-08T05:10:30.073Z,59.93
2023-03-08T05:13:33.198Z,60.00
2023-03-08T05:16:35.234Z,59.81
2023-03-08T05:19:37.787Z,60.07
2023-03-08T05:22:56.698Z,59.66
2023-03-08T05:26:04.079Z,59.83
2023-03-08T05:29:06.258Z,59.71
2023-03-08T05:32:12.409Z,59.71
2023-03-08T05:35:15.183Z,59.85
2023-03-08T05:38:17.375Z,59.65
2023-03-08T05:41:20.760Z,60.04
2023-03-08T05:44:23.678Z,59.45
2023-03-08T05:47:26.468Z,59.90
2023-03-08T05:50:28.362Z,59.63
2023-03-08T05:53:30.333Z,59.81
2023-03-08T05:56:32.322Z,59.55
2023-03-08T05:59:39.588Z,59.58
2023-03-08T06:02:42.934Z,59.62
2023-03-08T06:05:45.376Z,59.83
2023-03-08T06:08:48.087Z,59.70
2023-03-08T06:11:50.243Z,59.97
2023-03-08T06:14:53.607Z,60.19
2023-03-08T06:17:56.949Z,60.14
2023-03-08T06:21:03.947Z,60.47
2023-03-08T06:24:06.423Z,60.47
2023-03-08T06:27:08.448Z,60.22
2023-03-08T06:30:11.707Z,60.66
2023-03-08T06:33:13.898Z,60.77
2023-03-08T06:36:20.336Z,60.75
2023-03-08T06:39:23.941Z,61.05
2023-03-08T06:42:39.858Z,60.98
2023-03-08T06:45:42.974Z,61.10
2023-03-08T06:48:46.405Z,61.33
2023-03-08T06:51:49.683Z,61.12
2023-03-08T06:54:51.592Z,61.43
2023-03-08T06:57:55.078Z,61.36
2023-03-08T07:00:59.282Z,61.24
2023-03-08T07:04:01.214Z,61.15
2023-03-08T07:07:03.778Z,61.21
2023-03-08T07:10:06.348Z,61.27
2023-03-08T07:13:08.273Z,61.40
2023-03-08T07:16:12.942Z,61.47
2023-03-08T07:19:15.087Z,61.65
2023-03-08T07:22:16.886Z,61.38
2023-03-08T07:25:20.112Z,61.54
2023-03-08T07:28:22.309Z,61.46
2023-03-08T07:31:25.949Z,61.72
2023-03-08T07:34:27.827Z,61.81
2023-03-08T07:37:29.716Z,62.00
2023-03-08T07:40:31.548Z,62.00
2023-03-08T07:43:33.471Z,62.32
2023-03-08T07:46:45.196Z,62.41
2023-03-08T07:49:47.321Z,62.51
2023-03-08T07:52:49.136Z,62.55
2023-03-08T07:55:51.000Z,62.73
2023-03-08T07:58:55.565Z,62.88
2023-03-08T08:01:58.129Z,62.64
2023-03-08T08:05:00.714Z,62.76
2023-03-08T08:08:03.060Z,62.88
2023-03-08T08:11:14.047Z,62.86
2023-03-08T08:14:15.966Z,63.08
2023-03-08T08:17:19.238Z,63.09
2023-03-08T08:20:21.216Z,62.91
2023-03-08T08:23:23.143Z,63.02
2023-03-08T08:26:25.476Z,63.01
2023-03-08T08:29:27.332Z,62.91
2023-03-08T08:32:29.810Z,63.11
2023-03-08T08:35:42.646Z,63.17
2023-03-08T08:38:45.718Z,63.07
2023-03-08T08:41:50.584Z,62.96
2023-03-08T08:44:53.184Z,63.15
2023-03-08T08:47:55.053Z,62.82
2023-03-08T08:50:58.221Z,63.09
2023-03-08T08:54:00.170Z,62.99
2023-03-08T08:57:02.095Z,63.03
2023-03-08T09:00:08.057Z,62.93
2023-03-08T09:03:11.128Z,63.14
2023-03-08T09:06:14.684Z,63.17
2023-03-08T09:09:17.572Z,63.18
2023-03-08T09:12:20.473Z,63.37
2023-03-08T09:15:22.553Z,63.29
2023-03-08T09:18:24.942Z,63.32
2023-03-08T09:21:27.691Z,63.30
2023-03-08T09:24:29.749Z,63.33
2023-03-08T09:27:32.412Z,63.35
2023-03-08T09:30:34.301Z,63.63
2023-03-08T09:33:36.240Z,63.46
2023-03-08T09:36:41.374Z,63.87
2023-03-08T09:39:44.143Z,63.37
2023-03-08T09:42:46.442Z,63.46
2023-03-08T09:45:51.840Z,63.00
2023-03-08T09:49:00.311Z,63.20
2023-03-08T09:52:22.477Z,62.75
2023-03-08T09:55:31.244Z,62.34
2023-03-08T09:58:50.895Z,62.20
2023-03-08T10:01:58.724Z,62.39
2023-03-08T10:05:34.471Z,62.36
2023-03-08T10:08:55.685Z,61.98
2023-03-08T10:12:13.402Z,61.98
2023-03-08T10:15:19.939Z,61.92
2023-03-08T10:18:30.263Z,61.53
2023-03-08T10:21:36.638Z,61.53
2023-03-08T10:25:04.265Z,61.66
2023-03-08T10:28:13.519Z,61.41
2023-03-08T10:31:33.170Z,61.30
2023-03-08T10:34:35.202Z,61.19
2023-03-08T10:37:37.274Z,61.02
2023-03-08T10:40:39.273Z,60.81
2023-03-08T10:43:46.818Z,60.65
2023-03-08T10:46:49.891Z,60.46
2023-03-08T10:50:05.412Z,60.33
2023-03-08T10:53:19.798Z,60.25
2023-03-08T10:56:38.044Z,59.92
2023-03-08T10:59:40.774Z,59.81
2023-03-08T11:02:42.724Z,59.76
2023-03-08T11:06:14.904Z,59.48
2023-03-08T11:09:43.124Z,59.46
2023-03-08T11:12:45.348Z,59.69
2023-03-08T11:16:04.497Z,59.51
2023-03-08T11:19:25.895Z,59.29
2023-03-08T11:26:24.116Z,58.72
2023-03-08T11:29:36.041Z,58.32
2023-03-08T11:32:49.768Z,57.63
2023-03-08T11:36:04.851Z,57.35
2023-03-08T11:39:19.363Z,56.97
2023-03-08T11:42:40.850Z,56.90
2023-03-08T11:46:22.206Z,56.65
2023-03-08T11:49:32.447Z,56.65
2023-03-08T11:52:51.240Z,56.68
2023-03-08T11:56:27.118Z,56.67
2023-03-08T11:59:31.687Z,56.90
2023-03-08T12:02:38.195Z,56.77
2023-03-08T12:06:00.834Z,56.79
2023-03-08T12:09:27.704Z,56.99
2023-03-08T12:12:48.220Z,56.60
2023-03-08T12:16:08.564Z,56.68
2023-03-08T12:19:29.553Z,56.59
2023-03-08T12:22:47.336Z,56.29
2023-03-08T12:26:03.300Z,56.02
2023-03-08T12:29:24.425Z,55.79
2023-03-08T12:32:27.414Z,55.49
2023-03-08T12:35:34.988Z,55.12
2023-03-08T12:38:45.013Z,54.94
2023-03-08T12:42:00.896Z,54.49
2023-03-08T12:45:27.646Z,54.26
2023-03-08T12:48:31.231Z,54.15
2023-03-08T12:51:33.483Z,53.97
2023-03-08T12:54:35.710Z,54.04
2023-03-08T12:57:55.092Z,54.00
2023-03-08T13:01:03.181Z,53.82
2023-03-08T13:04:39.090Z,53.84
2023-03-08T13:08:09.442Z,53.83
2023-03-08T13:11:15.533Z,53.69
2023-03-08T13:14:38.467Z,53.39
2023-03-08T13:17:48.095Z,53.02
2023-03-08T13:21:01.584Z,52.78
2023-03-08T13:24:09.918Z,52.75
2023-03-08T13:27:40.512Z,52.79
2023-03-08T13:30:53.084Z,52.67
2023-03-08T13:33:58.669Z,52.60
2023-03-08T13:37:01.362Z,52.43
2023-03-08T13:40:07.227Z,52.11
2023-03-08T13:43:16.412Z,51.96
2023-03-08T13:46:19.215Z,51.85
2023-03-08T13:49:28.390Z,51.85
2023-03-08T13:52:35.072Z,51.88
2023-03-08T13:55:44.057Z,51.80
2023-03-08T13:58:49.253Z,51.88
2023-03-08T14:01:53.207Z,51.52
2023-03-08T14:04:56.200Z,51.61
2023-03-08T14:08:02.835Z,51.45
2023-03-08T14:11:12.605Z,51.40
2023-03-08T14:14:24.196Z,51.20
2023-03-08T14:17:28.879Z,51.15
2023-03-08T14:20:31.375Z,51.09
2023-03-08T14:23:47.144Z,50.93
2023-03-08T14:26:59.830Z,50.70
2023-03-08T14:30:11.993Z,50.57
2023-03-08T14:33:13.903Z,50.45
2023-03-08T14:36:16.012Z,50.46
2023-03-08T14:39:18.866Z,50.31
2023-03-08T14:42:26.997Z,50.28
2023-03-08T14:45:53.147Z,50.20
2023-03-08T14:49:04.384Z,50.35
2023-03-08T14:52:19.693Z,50.27
2023-03-08T14:55:27.888Z,50.10
2023-03-08T14:58:31.950Z,50.21
2023-03-08T15:01:36.833Z,50.01
2023-03-08T15:04:39.331Z,49.96
2023-03-08T15:07:42.511Z,50.10
2023-03-08T15:24:17.017Z,50.63
2023-03-08T15:27:19.222Z,50.88
2023-03-08T15:30:24.418Z,51.24
2023-03-08T15:33:26.494Z,51.83
2023-03-08T15:36:31.866Z,52.23
2023-03-08T15:39:33.829Z,52.61
2023-03-08T15:42:35.757Z,53.09
2023-03-08T15:45:37.874Z,53.32
2023-03-08T15:48:40.066Z,53.72
2023-03-08T15:51:41.987Z,54.16
2023-03-08T15:54:47.074Z,54.67
2023-03-08T15:57:49.837Z,55.08
2023-03-08T16:00:52.259Z,55.53
2023-03-08T16:03:56.083Z,55.77
2023-03-08T16:06:58.018Z,56.02
2023-03-08T16:10:00.732Z,56.31
2023-03-08T16:13:02.630Z,56.49
2023-03-08T16:16:05.662Z,56.93
2023-03-08T16:19:07.502Z,56.83
2023-03-08T16:22:10.219Z,56.95
2023-03-08T16:25:13.436Z,57.15
2023-03-08T16:28:15.421Z,57.34
2023-03-08T16:31:20.395Z,57.44
2023-03-08T16:34:22.260Z,57.68
2023-03-08T16:37:24.856Z,57.81
2023-03-08T16:40:30.469Z,58.11
2023-03-08T16:43:45.592Z,58.40
2023-03-08T16:46:48.969Z,58.48
2023-03-08T16:49:50.995Z,58.52
2023-03-08T16:52:57.392Z,58.86
2023-03-08T16:55:59.238Z,58.87
2023-03-08T16:59:04.229Z,59.00
2023-03-08T17:02:12.556Z,59.43
2023-03-08T17:05:15.018Z,59.51
2023-03-08T17:08:17.092Z,59.88
2023-03-08T17:11:21.941Z,60.05
2023-03-08T17:14:24.040Z,59.94
2023-03-08T17:17:28.805Z,60.09
2023-03-08T17:20:32.194Z,60.47
2023-03-08T17:23:36.848Z,60.55
2023-03-08T17:26:45.740Z,60.78
2023-03-08T17:29:48.156Z,60.89
2023-03-08T17:32:50.682Z,61.18
2023-03-08T17:35:53.573Z,61.42
2023-03-08T17:38:56.020Z,61.46
2023-03-08T17:41:57.801Z,61.73
2023-03-08T17:45:00.269Z,61.89
2023-03-08T17:48:03.193Z,62.10
2023-03-08T17:51:07.496Z,62.17
2023-03-08T17:54:11.097Z,62.15
2023-03-08T17:57:13.315Z,62.50
2023-03-08T18:00:15.586Z,62.62
2023-03-08T18:03:17.350Z,62.86
2023-03-08T18:06:24.282Z,62.99
2023-03-08T18:09:29.091Z,63.28
2023-03-08T18:12:31.523Z,63.42
2023-03-08T18:15:33.347Z,63.59
2023-03-08T18:18:35.420Z,63.67
2023-03-08T18:21:40.003Z,63.97
2023-03-08T18:24:42.984Z,63.85
2023-03-08T18:27:45.089Z,64.27
2023-03-08T18:30:48.267Z,64.28
2023-03-08T18:33:50.272Z,64.20
2023-03-08T18:36:52.209Z,64.13
2023-03-08T18:39:54.501Z,64.49
2023-03-08T18:42:56.560Z,64.47
2023-03-08T18:45:58.462Z,64.62
2023-03-08T18:49:04.561Z,64.86
2023-03-08T18:52:06.813Z,64.73
2023-03-08T18:55:09.154Z,65.12
2023-03-08T18:58:10.938Z,65.24
2023-03-08T19:01:16.128Z,64.98
2023-03-08T19:04:18.187Z,65.20
2023-03-08T19:07:20.073Z,65.13
2023-03-08T19:10:21.887Z,65.15
2023-03-08T19:13:23.847Z,65.30
2023-03-08T19:16:28.687Z,65.44
2023-03-08T19:19:30.774Z,65.48
2023-03-08T19:22:32.903Z,65.45
2023-03-08T19:25:59.273Z,65.61
2023-03-08T19:29:04.178Z,65.56
2023-03-08T19:32:07.400Z,65.68
2023-03-08T19:35:09.634Z,65.85
2023-03-08T19:38:11.387Z,65.82
2023-03-08T19:41:13.379Z,65.87
2023-03-08T19:44:15.328Z,65.88
2023-03-08T19:47:19.356Z,66.06
2023-03-08T19:50:21.150Z,66.16
2023-03-08T19:53:23.072Z,66.13
2023-03-08T19:56:25.786Z,66.31
2023-03-08T19:59:27.702Z,66.30
2023-03-08T20:02:29.506Z,66.22
2023-03-08T20:05:31.591Z,66.31
2023-03-08T20:08:35.467Z,66.26
2023-03-08T20:11:37.514Z,66.47
2023-03-08T20:14:39.368Z,66.56
2023-03-08T20:17:41.154Z,66.58
2023-03-08T20:20:44.280Z,66.44
2023-03-08T20:23:47.478Z,66.36
2023-03-08T20:26:49.632Z,66.40
2023-03-08T20:29:52.083Z,66.29
2023-03-08T20:32:54.566Z,66.24
2023-03-08T20:36:00.414Z,66.26
2023-03-08T20:39:03.242Z,66.25
2023-03-08T20:42:05.186Z,66.21
2023-03-08T20:45:07.468Z,66.10
2023-03-08T20:48:09.392Z,66.16
2023-03-08T20:51:14.111Z,66.15
2023-03-08T20:54:17.199Z,66.18
2023-03-08T20:57:19.054Z,66.22
2023-03-08T21:00:24.503Z,66.27
2023-03-08T21:03:26.917Z,66.19
2023-03-08T21:06:31.041Z,66.22
2023-03-08T21:09:33.523Z,66.28
2023-03-08T21:12:36.345Z,66.40
2023-03-08T21:15:39.577Z,66.32
2023-03-08T21:18:45.363Z,66.31
2023-03-08T21:21:47.190Z,66.45
2023-03-08T21:24:49.020Z,66.30
2023-03-08T21:27:50.821Z,66.33
2023-03-08T21:30:52.667Z,66.26
2023-03-08T21:33:55.013Z,66.34
2023-03-08T21:36:56.723Z,66.44
2023-03-08T21:39:58.498Z,66.34
2023-03-08T21:43:00.273Z,66.53
2023-03-08T21:46:04.068Z,66.45
2023-03-08T21:49:06.913Z,66.58
2023-03-08T21:52:09.395Z,66.56
2023-03-08T21:55:11.262Z,66.46
2023-03-08T21:58:13.160Z,66.76
2023-03-08T22:01:27.334Z,66.64
2023-03-08T22:04:29.284Z,66.90
2023-03-08T22:07:31.085Z,66.87
2023-03-08T22:10:32.893Z,66.94
2023-03-08T22:13:35.153Z,67.04
2023-03-08T22:16:37.280Z,67.15
2023-03-08T22:19:39.142Z,67.22
2023-03-08T22:22:41.041Z,67.37
2023-03-08T22:25:42.812Z,67.27
2023-03-08T22:28:45.166Z,67.51
2023-03-08T22:31:46.924Z,67.50
2023-03-08T22:34:48.762Z,67.59
2023-03-08T22:37:50.655Z,67.74
2023-03-08T22:40:52.551Z,67.77
2023-03-08T22:43:54.902Z,67.85
2023-03-08T22:46:56.558Z,67.86
2023-03-08T22:49:58.464Z,67.94
2023-03-08T22:53:00.299Z,68.06
2023-03-08T22:56:02.122Z,68.34
2023-03-08T22:59:03.896Z,68.32
2023-03-08T23:02:06.251Z,68.29
2023-03-08T23:05:10.627Z,68.55
2023-03-08T23:08:12.534Z,68.56
2023-03-08T23:11:14.729Z,68.63
2023-03-08T23:14:16.652Z,68.57
2023-03-08T23:17:18.397Z,68.70
2023-03-08T23:20:21.805Z,68.78
2023-03-08T23:23:24.399Z,68.90
2023-03-08T23:26:27.870Z,68.92
2023-03-08T23:29:30.010Z,69.01
2023-03-08T23:32:32.236Z,68.92
2023-03-08T23:35:34.058Z,68.92
2023-03-08T23:38:36.042Z,69.04
2023-03-08T23:41:38.785Z,69.04
2023-03-08T23:44:40.669Z,69.07
2023-03-08T23:47:42.497Z,69.03
2023-03-08T23:50:44.248Z,69.23
2023-03-08T23:53:51.761Z,69.28
2023-03-08T23:56:53.556Z,69.20
2023-03-08T23:59:55.361Z,69.21
